Polfoss — V2PN7 — position and weather

sailwx.info

Track history (hours):
 
Tides and Currents Weather Stations Pressure Air Temp Water Temp Dewpoint Dewpoint Depression Visibility Wind Speed Wind Dir Waves Ship Positions

Polfoss

Last reported at 2017-Jun-24 13:30 UTC. Time now 2017-Jun-24 13:40 UTC.
Position N 58°26' E 005°59'.

Length 82 m; draft 6.1 m.

Type: Cargo ship. MMSI: 305081000.

Date/timePositionNaut miles runAvg speedWind from/ knotsBaromVisibWave heightAir tempDewpointWater temp
2017-Jun-24 13:30N 58°26' E 005°59'0 0.5
2017-Jun-24 13:00N 58°26' E 005°59'0 0.0
2017-Jun-24 12:30N 58°26' E 005°59'0 0.0
2017-Jun-24 12:00N 58°26' E 005°59'3 6.2
2017-Jun-24 11:31N 58°24' E 005°55'713.3
2017-Jun-24 11:00N 58°28' E 005°44'713.6
2017-Jun-24 10:30N 58°33' E 005°36'713.8
2017-Jun-24 10:01N 58°39' E 005°29'713.7
2017-Jun-24 09:30N 58°45' E 005°22'713.9
2017-Jun-24 09:00N 58°52' E 005°20'713.3
2017-Jun-24 08:30N 58°58' E 005°19'713.0
2017-Jun-24 08:00N 59°05' E 005°19'713.6
2017-Jun-24 07:30N 59°12' E 005°20'714.0
2017-Jun-24 06:59N 59°19' E 005°20'510.7
2017-Jun-24 06:30N 59°24' E 005°16'511.3
2017-Jun-24 06:00N 59°29' E 005°12'713.1
2017-Jun-24 05:30N 59°36' E 005°16'713.8
2017-Jun-24 05:00N 59°41' E 005°24'713.5
2017-Jun-24 04:30N 59°46' E 005°33'713.7
2017-Jun-24 04:01N 59°53' E 005°32'713.5
2017-Jun-24 03:30N 59°58' E 005°23'613.1
2017-Jun-24 03:00N 60°04' E 005°19'714.2
2017-Jun-24 02:30N 60°11' E 005°13'612.5
2017-Jun-24 02:00N 60°17' E 005°11'713.3
2017-Jun-24 01:30N 60°24' E 005°09'713.2
2017-Jun-24 01:00N 60°28' E 004°60'713.7
2017-Jun-24 00:30N 60°35' E 004°54'714.0
2017-Jun-24 00:00N 60°41' E 004°50'713.9
2017-Jun-23 23:30N 60°48' E 004°45'713.4
2017-Jun-23 23:00N 60°54' E 004°46'714.1
2017-Jun-23 22:30N 61°01' E 004°45'713.7
2017-Jun-23 22:00N 61°08' E 004°45'713.3
2017-Jun-23 21:30N 61°15' E 004°44'713.5
2017-Jun-23 21:00N 61°21' E 004°48'713.2
2017-Jun-23 20:29N 61°27' E 004°55'612.9
2017-Jun-23 20:00N 61°33' E 005°00'612.5
2017-Jun-23 19:30N 61°39' E 004°59'612.4
2017-Jun-23 19:00N 61°45' E 005°01'713.2
2017-Jun-23 18:30N 61°49' E 005°12'3 7.0
2017-Jun-23 18:00N 61°53' E 005°10'3 6.8
2017-Jun-23 17:30N 61°56' E 005°07'0 0.0
2017-Jun-23 17:00N 61°56' E 005°07'4 7.3
2017-Jun-23 16:30N 61°59' E 005°10'713.7
2017-Jun-23 16:00N 62°06' E 005°06'612.8
2017-Jun-23 15:30N 62°12' E 005°06'713.5
2017-Jun-23 15:00N 62°16' E 005°18'1313.1
2017-Jun-23 14:00N 62°20' E 005°45'713.5
2017-Jun-23 13:30N 62°26' E 005°53'714.2
2017-Jun-23 13:00N 62°27' E 006°08'1 2.3
2017-Jun-23 12:30N 62°28' E 006°08'0 0.0
2017-Jun-23 12:00N 62°28' E 006°08'0 0.0
2017-Jun-23 11:30N 62°28' E 006°08'0 0.0
2017-Jun-23 11:00N 62°28' E 006°08'0 0.0
2017-Jun-23 10:30N 62°28' E 006°08'0 0.0
2017-Jun-23 10:00N 62°28' E 006°08'0 0.0
2017-Jun-23 09:30N 62°28' E 006°08'0 0.0
2017-Jun-23 09:00N 62°28' E 006°08'0 0.0
2017-Jun-23 08:30N 62°28' E 006°08'0 0.0
2017-Jun-23 08:00N 62°28' E 006°08'0 0.0
2017-Jun-23 07:30N 62°28' E 006°08'0 0.0
2017-Jun-23 06:59N 62°28' E 006°08'0 0.0
2017-Jun-23 06:30N 62°28' E 006°08'0 0.0
2017-Jun-23 06:00N 62°28' E 006°08'0 0.0
2017-Jun-23 05:30N 62°28' E 006°08'0 0.0
2017-Jun-23 05:00N 62°28' E 006°08'0 0.0
2017-Jun-23 04:30N 62°28' E 006°08'0 0.0
2017-Jun-23 04:00N 62°28' E 006°08'0 0.0
2017-Jun-23 03:29N 62°28' E 006°08'0 0.0
2017-Jun-23 03:00N 62°28' E 006°08'0 0.0
2017-Jun-23 02:29N 62°28' E 006°08'0 0.0
2017-Jun-23 02:00N 62°28' E 006°08'0 0.0
2017-Jun-23 01:30N 62°28' E 006°08'0 0.0
2017-Jun-23 01:00N 62°28' E 006°08'0 0.0
2017-Jun-23 00:30N 62°28' E 006°08'0 0.0
2017-Jun-23 00:00N 62°28' E 006°08'0 0.0
2017-Jun-22 23:29N 62°28' E 006°08'0 0.0
2017-Jun-22 22:59N 62°28' E 006°08'0 0.0
2017-Jun-22 22:30N 62°28' E 006°08'0 0.0
2017-Jun-22 21:59N 62°28' E 006°08'0 0.0
2017-Jun-22 21:30N 62°28' E 006°08'0 0.0
2017-Jun-22 21:00N 62°28' E 006°08'0 0.0
2017-Jun-22 20:30N 62°28' E 006°08'0 0.0
2017-Jun-22 20:00N 62°28' E 006°08'0 0.0
2017-Jun-22 19:30N 62°28' E 006°08'0 0.0
2017-Jun-22 19:00N 62°28' E 006°08'0 0.0
2017-Jun-22 18:29N 62°28' E 006°08'0 0.0
2017-Jun-22 17:59N 62°28' E 006°08'0 0.0
2017-Jun-22 17:30N 62°28' E 006°08'0 0.0
2017-Jun-22 17:00N 62°28' E 006°08'0 0.0
2017-Jun-22 16:30N 62°28' E 006°08'0 0.0
2017-Jun-22 16:00N 62°28' E 006°08'0 0.0
2017-Jun-22 15:30N 62°28' E 006°08'0 0.0
2017-Jun-22 15:00N 62°28' E 006°08'0 0.0
2017-Jun-22 14:00N 62°28' E 006°08'0 0.0
2017-Jun-22 13:30N 62°28' E 006°08'1 2.4
2017-Jun-22 13:00N 62°27' E 006°10'2 3.4
2017-Jun-22 12:30N 62°29' E 006°11'1 2.7
2017-Jun-22 12:00N 62°29' E 006°14'0 0.1
2017-Jun-22 11:30N 62°29' E 006°14'3 6.5
2017-Jun-22 11:00N 62°28' E 006°21'0 0.0
2017-Jun-22 10:30N 62°28' E 006°21'0 0.1
2017-Jun-22 10:00N 62°28' E 006°21'1 3.0
2017-Jun-22 09:30N 62°29' E 006°18'0 0.0
2017-Jun-22 09:00N 62°29' E 006°18'3 5.4
2017-Jun-22 08:29N 62°30' E 006°24'0 0.0
2017-Jun-22 08:00N 62°30' E 006°24'0 0.0
2017-Jun-22 07:30N 62°30' E 006°24'3 6.8
2017-Jun-22 07:00N 62°29' E 006°17'4 8.8
2017-Jun-22 06:30N 62°28' E 006°08'0 0.0
2017-Jun-22 06:00N 62°28' E 006°08'0 0.0
2017-Jun-22 05:30N 62°28' E 006°08'0 0.0
2017-Jun-22 05:00N 62°28' E 006°08'0 0.0
2017-Jun-22 04:30N 62°28' E 006°08'0 0.0
2017-Jun-22 03:59N 62°28' E 006°08'0 0.0
2017-Jun-22 03:30N 62°28' E 006°08'0 0.0
2017-Jun-22 03:00N 62°28' E 006°08'0 0.0
2017-Jun-22 02:30N 62°28' E 006°08'0 0.0
2017-Jun-22 02:00N 62°28' E 006°08'0 0.0
2017-Jun-22 01:30N 62°28' E 006°08'0 0.0
2017-Jun-22 00:59N 62°28' E 006°08'0 0.1
2017-Jun-22 00:30N 62°28' E 006°08'4 8.9
2017-Jun-22 00:00N 62°33' E 006°09'713.8
2017-Jun-21 23:30N 62°37' E 006°20'713.8
2017-Jun-21 23:00N 62°43' E 006°29'714.0
2017-Jun-21 22:30N 62°49' E 006°37'713.6
2017-Jun-21 22:00N 62°54' E 006°47'5 9.5
2017-Jun-21 21:30N 62°53' E 006°57'0 0.0
2017-Jun-21 21:00N 62°53' E 006°57'0 0.0
2017-Jun-21 20:30N 62°53' E 006°57'0 0.4
2017-Jun-21 20:00N 62°53' E 006°56'510.8
2017-Jun-21 19:30N 62°57' E 006°50'613.2
2017-Jun-21 19:00N 63°00' E 007°03'713.3
2017-Jun-21 18:30N 63°03' E 007°16'613.0
2017-Jun-21 18:00N 63°06' E 007°29'612.9
2017-Jun-21 17:30N 63°09' E 007°41'713.2
2017-Jun-21 17:00N 63°13' E 007°53'612.9
2017-Jun-21 16:30N 63°16' E 008°06'712.8
2017-Jun-21 16:00N 63°20' E 008°18'612.8
2017-Jun-21 15:29N 63°24' E 008°29'612.8
2017-Jun-21 14:59N 63°26' E 008°42'612.9
2017-Jun-21 14:30N 63°28' E 008°56'1413.0
2017-Jun-21 13:24N 63°35' E 009°24'512.9
2017-Jun-21 13:01N 63°39' E 009°29'713.7
2017-Jun-21 12:30N 63°46' E 009°33'813.1
2017-Jun-21 11:51N 63°53' E 009°44'1112.6
2017-Jun-21 11:00N 64°03' E 009°50'5011.4
2017-Jun-21 06:36N 64°44' E 010°58'113.1
2017-Jun-21 06:30N 64°45' E 010°60'713.4
2017-Jun-21 06:00N 64°50' E 011°11'2 4.5
2017-Jun-21 05:30N 64°52' E 011°14'510.2
2017-Jun-21 05:00N 64°55' E 011°23'713.6
2017-Jun-21 04:30N 64°59' E 011°36'713.0
2017-Jun-21 04:00N 65°04' E 011°46'713.7
2017-Jun-21 03:30N 65°11' E 011°51'713.8
2017-Jun-21 03:00N 65°17' E 011°58'711.5
2017-Jun-21 02:22N 65°24' E 011°58'612.4
2017-Jun-21 01:54N 65°30' E 011°60'1013.4
2017-Jun-21 01:07N 65°39' E 012°13'214.0
2017-Jun-21 00:59N 65°41' E 012°15'1014.2
2017-Jun-21 00:15N 65°51' E 012°22'613.5
2017-Jun-20 23:47N 65°57' E 012°25'413.4
2017-Jun-20 23:30N 65°60' E 012°31'713.5
2017-Jun-20 22:59N 66°05' E 012°41'613.4
2017-Jun-20 22:31N 66°11' E 012°50'713.6
2017-Jun-20 22:00N 66°17' E 012°55'713.6
2017-Jun-20 21:30N 66°24' E 012°58'713.3
2017-Jun-20 20:59N 66°31' E 012°58'611.6
2017-Jun-20 20:30N 66°36' E 013°05'713.6
2017-Jun-20 19:59N 66°42' E 013°10'713.5
2017-Jun-20 19:28N 66°49' E 013°16'612.8
2017-Jun-20 19:00N 66°54' E 013°25'611.5
2017-Jun-20 18:30N 66°58' E 013°34'713.8
2017-Jun-20 18:00N 67°02' E 013°49'713.7
2017-Jun-20 17:30N 67°07' E 014°00'713.3
2017-Jun-20 17:00N 67°13' E 014°08'713.4
2017-Jun-20 16:30N 67°19' E 014°17'713.4
2017-Jun-20 16:01N 67°24' E 014°27'713.6
2017-Jun-20 15:30N 67°31' E 014°22'713.9
2017-Jun-20 15:00N 67°38' E 014°16'2113.5
2017-Jun-20 13:27N 67°58' E 014°09'1113.5
2017-Jun-20 12:38N 68°10' E 014°07'33 8.3
2017-Jun-20 08:44N 68°33' E 015°07'104 5.2
2017-Jun-19 12:50N 69°38' E 018°57'0 0.0
2017-Jun-19 12:30N 69°38' E 018°57'0 0.0
2017-Jun-19 12:00N 69°38' E 018°57'0 0.0
2017-Jun-19 11:29N 69°38' E 018°57'0 0.0
2017-Jun-19 11:00N 69°38' E 018°57'0 0.0
2017-Jun-19 10:30N 69°38' E 018°57'0 0.0
2017-Jun-19 10:00N 69°38' E 018°57'0 0.0
2017-Jun-19 09:30N 69°38' E 018°57'0 0.0
2017-Jun-19 09:00N 69°38' E 018°57'0 0.0
2017-Jun-19 08:30N 69°38' E 018°57'0 0.0
2017-Jun-19 08:00N 69°38' E 018°57'0 0.0
2017-Jun-19 07:30N 69°38' E 018°57'0 0.0
2017-Jun-19 07:00N 69°38' E 018°57'0 0.0
2017-Jun-19 06:29N 69°38' E 018°57'0 0.0
2017-Jun-19 06:00N 69°38' E 018°57'0 0.0
2017-Jun-19 05:30N 69°38' E 018°57'0 0.0
2017-Jun-19 05:00N 69°38' E 018°57'0 0.0
2017-Jun-19 04:30N 69°38' E 018°57'0 0.0
2017-Jun-19 04:00N 69°38' E 018°57'0 0.0
2017-Jun-19 03:30N 69°38' E 018°57'0 0.0
2017-Jun-19 03:00N 69°38' E 018°57'0 0.0
2017-Jun-19 02:30N 69°38' E 018°57'0 0.0
2017-Jun-19 02:00N 69°38' E 018°57'0 0.0
2017-Jun-19 01:30N 69°38' E 018°57'0 0.0
2017-Jun-19 01:00N 69°38' E 018°57'0 0.0
2017-Jun-19 00:29N 69°38' E 018°57'0 0.0
2017-Jun-19 00:00N 69°38' E 018°57'0 0.0
2017-Jun-18 23:30N 69°38' E 018°57'0 0.0
2017-Jun-18 22:59N 69°38' E 018°57'0 0.0
2017-Jun-18 22:30N 69°38' E 018°57'0 0.0
2017-Jun-18 22:00N 69°38' E 018°57'0 0.0
2017-Jun-18 21:29N 69°38' E 018°57'0 0.0
2017-Jun-18 21:00N 69°38' E 018°57'0 0.0
2017-Jun-18 20:30N 69°38' E 018°57'0 0.0
2017-Jun-18 20:00N 69°38' E 018°57'0 0.0
2017-Jun-18 19:30N 69°38' E 018°57'0 0.0
2017-Jun-18 19:00N 69°38' E 018°57'0 0.0
2017-Jun-18 18:30N 69°38' E 018°57'2 3.8
2017-Jun-18 18:00N 69°39' E 018°58'0 0.0
2017-Jun-18 17:29N 69°39' E 018°58'0 0.0
2017-Jun-18 17:00N 69°39' E 018°58'0 0.0
2017-Jun-18 16:30N 69°39' E 018°58'0 0.0
2017-Jun-18 16:00N 69°39' E 018°58'0 0.0
2017-Jun-18 15:30N 69°39' E 018°58'0 0.0
2017-Jun-18 15:00N 69°39' E 018°58'1 0.7
2017-Jun-18 14:00N 69°40' E 018°60'0 0.2
2017-Jun-18 13:30N 69°40' E 018°59'0 0.1
2017-Jun-18 13:00N 69°40' E 018°59'0 0.3
2017-Jun-18 12:30N 69°40' E 018°59'0 0.9
2017-Jun-18 12:00N 69°39' E 018°58'0 0.0
2017-Jun-18 11:30N 69°39' E 018°58'0 0.0
2017-Jun-18 10:59N 69°39' E 018°58'0 0.0
2017-Jun-18 10:29N 69°39' E 018°58'0 0.0
2017-Jun-18 10:00N 69°39' E 018°58'0 0.0
2017-Jun-18 09:30N 69°39' E 018°58'0 0.0
2017-Jun-18 09:00N 69°39' E 018°58'0 0.0
2017-Jun-18 08:30N 69°39' E 018°58'0 0.0
2017-Jun-18 08:00N 69°39' E 018°58'0 0.0
2017-Jun-18 07:30N 69°39' E 018°58'0 0.0
2017-Jun-18 07:00N 69°39' E 018°58'0 0.0
2017-Jun-18 06:30N 69°39' E 018°58'0 0.0
2017-Jun-18 06:00N 69°39' E 018°58'0 0.1
2017-Jun-18 05:29N 69°39' E 018°58'0 0.1
2017-Jun-18 05:00N 69°39' E 018°58'0 0.0
2017-Jun-18 04:30N 69°39' E 018°58'0 0.0
2017-Jun-18 04:00N 69°39' E 018°58'0 0.0
2017-Jun-18 03:30N 69°39' E 018°58'0 0.0
2017-Jun-18 03:00N 69°39' E 018°58'0 0.0
2017-Jun-18 02:30N 69°39' E 018°58'0 0.0
2017-Jun-18 02:00N 69°39' E 018°58'0 0.0
2017-Jun-18 01:30N 69°39' E 018°58'0 0.0
2017-Jun-18 01:00N 69°39' E 018°58'0 0.0
2017-Jun-18 00:30N 69°39' E 018°58'0 0.0
2017-Jun-18 00:00N 69°39' E 018°58'0 0.0
2017-Jun-17 23:29N 69°39' E 018°58'0 0.0
2017-Jun-17 23:00N 69°39' E 018°58'0 0.0
2017-Jun-17 22:30N 69°39' E 018°58'0 0.0
2017-Jun-17 21:59N 69°39' E 018°58'0 0.0
2017-Jun-17 21:30N 69°39' E 018°58'0 0.0
2017-Jun-17 21:00N 69°39' E 018°58'0 0.0
2017-Jun-17 20:30N 69°39' E 018°58'0 0.0
2017-Jun-17 20:00N 69°39' E 018°58'0 0.0
2017-Jun-17 19:30N 69°39' E 018°58'0 0.0
2017-Jun-17 19:00N 69°39' E 018°58'0 0.0
2017-Jun-17 18:30N 69°39' E 018°58'0 0.0
2017-Jun-17 17:59N 69°39' E 018°58'0 0.0
2017-Jun-17 17:30N 69°39' E 018°58'0 0.0
2017-Jun-17 17:00N 69°39' E 018°58'0 0.0
2017-Jun-17 16:30N 69°39' E 018°58'0 0.0
2017-Jun-17 16:00N 69°39' E 018°58'0 0.0
2017-Jun-17 15:29N 69°39' E 018°58'0 0.0
2017-Jun-17 15:00N 69°39' E 018°58'0 0.0
2017-Jun-17 13:59N 69°39' E 018°58'0 0.0
2017-Jun-17 13:30N 69°39' E 018°58'0 0.0
2017-Jun-17 13:00N 69°39' E 018°58'0 0.0
2017-Jun-17 12:30N 69°39' E 018°58'1 2.0
2017-Jun-17 12:00N 69°40' E 019°00'713.2
2017-Jun-17 11:30N 69°46' E 019°08'714.5
2017-Jun-17 11:00N 69°49' E 019°28'714.5
2017-Jun-17 10:30N 69°52' E 019°47'714.5
2017-Jun-17 10:00N 69°56' E 020°03'714.2
2017-Jun-17 09:30N 69°60' E 020°21'714.6
2017-Jun-17 09:00N 70°02' E 020°41'713.5
2017-Jun-17 08:30N 70°06' E 020°58'714.2
2017-Jun-17 07:59N 70°12' E 021°07'713.8
2017-Jun-17 07:30N 70°17' E 021°22'713.9
2017-Jun-17 07:00N 70°22' E 021°36'613.2
2017-Jun-17 06:30N 70°25' E 021°53'713.9
2017-Jun-17 06:00N 70°27' E 022°13'714.3
2017-Jun-17 05:30N 70°29' E 022°34'713.9
2017-Jun-17 05:00N 70°30' E 022°54'713.4
2017-Jun-17 04:30N 70°35' E 023°09'713.5
2017-Jun-17 04:00N 70°40' E 023°23'713.6
2017-Jun-17 03:30N 70°45' E 023°37'714.1
2017-Jun-17 03:00N 70°50' E 023°52'714.1
2017-Jun-17 02:30N 70°54' E 024°09'714.4
2017-Jun-17 02:00N 70°60' E 024°24'612.1
2017-Jun-17 01:30N 71°01' E 024°43'1 2.1
2017-Jun-17 01:00N 70°60' E 024°41'0 0.8
2017-Jun-17 00:30N 70°60' E 024°43'713.4
2017-Jun-17 00:00N 70°59' E 025°03'714.4
2017-Jun-16 23:30N 70°58' E 025°25'713.9
2017-Jun-16 23:00N 70°56' E 025°46'510.2
2017-Jun-16 22:30N 70°60' E 025°58'0 0.5
2017-Jun-16 22:00N 70°60' E 025°58'0 0.4
2017-Jun-16 21:30N 70°59' E 025°57'5 9.5
2017-Jun-16 21:01N 70°59' E 026°12'714.8
2017-Jun-16 20:30N 71°01' E 026°33'714.3
2017-Jun-16 20:00N 71°04' E 026°54'714.3
2017-Jun-16 19:30N 71°06' E 027°15'713.5
2017-Jun-16 19:00N 71°08' E 027°34'713.1
2017-Jun-16 18:29N 71°08' E 027°55'613.3
2017-Jun-16 18:00N 71°07' E 028°15'713.1
2017-Jun-16 17:30N 71°04' E 028°32'713.4
2017-Jun-16 17:01N 70°60' E 028°48'713.5
2017-Jun-16 16:30N 70°56' E 029°05'612.8
2017-Jun-16 16:00N 70°52' E 029°20'713.2
2017-Jun-16 15:30N 70°48' E 029°36'612.7
2017-Jun-16 15:00N 70°43' E 029°50'612.0
2017-Jun-16 14:30N 70°38' E 029°43'0 0.0
2017-Jun-16 13:30N 70°38' E 029°43'0 0.0
2017-Jun-16 13:00N 70°38' E 029°43'0 0.0
2017-Jun-16 12:30N 70°38' E 029°43'0 0.0
2017-Jun-16 12:00N 70°38' E 029°43'0 0.0
2017-Jun-16 11:30N 70°38' E 029°43'0 0.0
2017-Jun-16 11:00N 70°38' E 029°43'0 0.0
2017-Jun-16 10:30N 70°38' E 029°43'0 0.0
2017-Jun-16 09:59N 70°38' E 029°43'0 0.0
2017-Jun-16 09:30N 70°38' E 029°43'0 0.0
2017-Jun-16 09:00N 70°38' E 029°43'0 0.0
2017-Jun-16 08:29N 70°38' E 029°43'0 0.0
2017-Jun-16 08:00N 70°38' E 029°43'0 0.0
2017-Jun-16 07:29N 70°38' E 029°43'0 0.0
2017-Jun-16 07:00N 70°38' E 029°43'0 0.0
2017-Jun-16 06:30N 70°38' E 029°43'0 0.0
2017-Jun-16 06:00N 70°38' E 029°43'0 0.0
2017-Jun-16 05:29N 70°38' E 029°43'0 0.0
2017-Jun-16 05:00N 70°38' E 029°43'0 0.0
2017-Jun-16 04:30N 70°38' E 029°43'0 0.3
2017-Jun-16 04:00N 70°38' E 029°44'0 0.0
2017-Jun-16 03:30N 70°38' E 029°44'0 0.0
2017-Jun-16 03:00N 70°38' E 029°44'0 0.0
2017-Jun-16 02:30N 70°38' E 029°44'0 0.0
2017-Jun-16 01:59N 70°38' E 029°44'0 0.0
2017-Jun-16 01:29N 70°38' E 029°44'0 0.0
2017-Jun-16 01:00N 70°38' E 029°44'0 0.0
2017-Jun-16 00:29N 70°38' E 029°44'0 0.0
2017-Jun-15 23:59N 70°38' E 029°44'0 0.0
2017-Jun-15 23:30N 70°38' E 029°44'0 0.0
2017-Jun-15 23:00N 70°38' E 029°44'0 0.0
2017-Jun-15 22:30N 70°38' E 029°44'0 0.0
2017-Jun-15 22:00N 70°38' E 029°44'0 0.0
2017-Jun-15 21:30N 70°38' E 029°44'0 0.0
2017-Jun-15 20:59N 70°38' E 029°44'0 0.0
2017-Jun-15 20:29N 70°38' E 029°44'0 0.0
2017-Jun-15 20:00N 70°38' E 029°44'0 0.0
2017-Jun-15 19:30N 70°38' E 029°44'0 0.0
2017-Jun-15 19:00N 70°38' E 029°44'0 0.0
2017-Jun-15 18:30N 70°38' E 029°44'0 0.0
2017-Jun-15 18:00N 70°38' E 029°44'0 0.0
2017-Jun-15 17:30N 70°38' E 029°44'0 0.0
2017-Jun-15 17:00N 70°38' E 029°44'0 0.0
2017-Jun-15 16:30N 70°38' E 029°44'0 0.0
2017-Jun-15 16:00N 70°38' E 029°44'0 0.0
2017-Jun-15 15:30N 70°38' E 029°44'0 0.0
2017-Jun-15 15:00N 70°38' E 029°44'0 0.0
2017-Jun-15 14:30N 70°38' E 029°44'0 0.1
2017-Jun-15 13:30N 70°38' E 029°44'0 0.1
2017-Jun-15 12:58N 70°38' E 029°44'0 0.0
2017-Jun-15 12:30N 70°38' E 029°44'0 0.0
2017-Jun-15 12:00N 70°38' E 029°44'0 0.0
2017-Jun-15 11:29N 70°38' E 029°44'0 0.0
2017-Jun-15 10:59N 70°38' E 029°44'0 0.0
2017-Jun-15 10:29N 70°38' E 029°44'0 0.0
2017-Jun-15 10:00N 70°38' E 029°44'0 0.0
2017-Jun-15 09:29N 70°38' E 029°44'0 0.0
2017-Jun-15 09:00N 70°38' E 029°44'0 0.0
2017-Jun-15 08:30N 70°38' E 029°44'0 0.0
2017-Jun-15 08:00N 70°38' E 029°43'0 0.0
2017-Jun-15 07:30N 70°38' E 029°43'0 0.0
2017-Jun-15 07:00N 70°38' E 029°44'0 0.0
2017-Jun-15 06:30N 70°38' E 029°44'0 0.0
2017-Jun-15 06:00N 70°38' E 029°44'0 0.0
2017-Jun-15 05:30N 70°38' E 029°44'0 0.0
2017-Jun-15 05:00N 70°38' E 029°44'0 0.0
2017-Jun-15 04:30N 70°38' E 029°44'0 0.0
2017-Jun-15 04:00N 70°38' E 029°44'0 0.0
2017-Jun-15 03:30N 70°38' E 029°44'0 0.2
2017-Jun-15 03:00N 70°38' E 029°43'510.3
2017-Jun-15 02:30N 70°42' E 029°50'714.2
2017-Jun-15 02:00N 70°48' E 029°36'715.0
2017-Jun-15 01:30N 70°52' E 029°17'815.3
2017-Jun-15 01:00N 70°57' E 028°59'714.6
2017-Jun-15 00:30N 71°01' E 028°41'714.3
2017-Jun-15 00:00N 71°05' E 028°23'713.6
2017-Jun-14 23:30N 71°08' E 028°04'714.3
2017-Jun-14 23:00N 71°09' E 027°42'713.8
2017-Jun-14 22:30N 71°07' E 027°21'714.9
2017-Jun-14 22:00N 71°04' E 026°59'714.8
2017-Jun-14 21:30N 71°02' E 026°37'714.7
2017-Jun-14 21:00N 70°59' E 026°16'714.8
2017-Jun-14 20:30N 70°57' E 025°55'714.5
2017-Jun-14 20:00N 70°56' E 025°33'713.9
2017-Jun-14 19:30N 70°59' E 025°15'714.8
2017-Jun-14 19:00N 70°60' E 024°52'714.7
2017-Jun-14 18:30N 71°01' E 024°30'815.2
2017-Jun-14 18:00N 70°56' E 024°14'815.5
2017-Jun-14 17:30N 70°51' E 023°56'815.1
2017-Jun-14 17:00N 70°45' E 023°40'612.4
2017-Jun-14 16:30N 70°39' E 023°35'2 3.8
2017-Jun-14 16:01N 70°40' E 023°40'0 0.0
2017-Jun-14 15:30N 70°40' E 023°40'0 0.1
2017-Jun-14 15:00N 70°40' E 023°40'1312.8
2017-Jun-14 14:00N 70°33' E 023°06'  
Track history (hours):
 
Tides and Currents Weather Stations Pressure Air Temp Water Temp Dewpoint Dewpoint Depression Visibility Wind Speed Wind Dir Waves Ship Positions

Polfoss

Last reported at 2017-Jun-24 13:30 UTC. Time now 2017-Jun-24 13:40 UTC.
Position N 58°26' E 005°59'.

Length 82 m; draft 6.1 m.

Type: Cargo ship. MMSI: 305081000.

Date/timePositionNaut miles runAvg speedWind from/ knotsBaromVisibWave heightAir tempDewpointWater temp
2017-Jun-24 13:30N 58°26' E 005°59'0 0.5
2017-Jun-24 13:00N 58°26' E 005°59'0 0.0
2017-Jun-24 12:30N 58°26' E 005°59'0 0.0
2017-Jun-24 12:00N 58°26' E 005°59'3 6.2
2017-Jun-24 11:31N 58°24' E 005°55'713.3
2017-Jun-24 11:00N 58°28' E 005°44'713.6
2017-Jun-24 10:30N 58°33' E 005°36'713.8
2017-Jun-24 10:01N 58°39' E 005°29'713.7
2017-Jun-24 09:30N 58°45' E 005°22'713.9
2017-Jun-24 09:00N 58°52' E 005°20'713.3
2017-Jun-24 08:30N 58°58' E 005°19'713.0
2017-Jun-24 08:00N 59°05' E 005°19'713.6
2017-Jun-24 07:30N 59°12' E 005°20'714.0
2017-Jun-24 06:59N 59°19' E 005°20'510.7
2017-Jun-24 06:30N 59°24' E 005°16'511.3
2017-Jun-24 06:00N 59°29' E 005°12'713.1
2017-Jun-24 05:30N 59°36' E 005°16'713.8
2017-Jun-24 05:00N 59°41' E 005°24'713.5
2017-Jun-24 04:30N 59°46' E 005°33'713.7
2017-Jun-24 04:01N 59°53' E 005°32'713.5
2017-Jun-24 03:30N 59°58' E 005°23'613.1
2017-Jun-24 03:00N 60°04' E 005°19'714.2
2017-Jun-24 02:30N 60°11' E 005°13'612.5
2017-Jun-24 02:00N 60°17' E 005°11'713.3
2017-Jun-24 01:30N 60°24' E 005°09'713.2
2017-Jun-24 01:00N 60°28' E 004°60'713.7
2017-Jun-24 00:30N 60°35' E 004°54'714.0
2017-Jun-24 00:00N 60°41' E 004°50'713.9
2017-Jun-23 23:30N 60°48' E 004°45'713.4
2017-Jun-23 23:00N 60°54' E 004°46'714.1
2017-Jun-23 22:30N 61°01' E 004°45'713.7
2017-Jun-23 22:00N 61°08' E 004°45'713.3
2017-Jun-23 21:30N 61°15' E 004°44'713.5
2017-Jun-23 21:00N 61°21' E 004°48'713.2
2017-Jun-23 20:29N 61°27' E 004°55'612.9
2017-Jun-23 20:00N 61°33' E 005°00'612.5
2017-Jun-23 19:30N 61°39' E 004°59'612.4
2017-Jun-23 19:00N 61°45' E 005°01'713.2
2017-Jun-23 18:30N 61°49' E 005°12'3 7.0
2017-Jun-23 18:00N 61°53' E 005°10'3 6.8
2017-Jun-23 17:30N 61°56' E 005°07'0 0.0
2017-Jun-23 17:00N 61°56' E 005°07'4 7.3
2017-Jun-23 16:30N 61°59' E 005°10'713.7
2017-Jun-23 16:00N 62°06' E 005°06'612.8
2017-Jun-23 15:30N 62°12' E 005°06'713.5
2017-Jun-23 15:00N 62°16' E 005°18'1313.1
2017-Jun-23 14:00N 62°20' E 005°45'713.5
2017-Jun-23 13:30N 62°26' E 005°53'714.2
2017-Jun-23 13:00N 62°27' E 006°08'1 2.3
2017-Jun-23 12:30N 62°28' E 006°08'0 0.0
2017-Jun-23 12:00N 62°28' E 006°08'0 0.0
2017-Jun-23 11:30N 62°28' E 006°08'0 0.0
2017-Jun-23 11:00N 62°28' E 006°08'0 0.0
2017-Jun-23 10:30N 62°28' E 006°08'0 0.0
2017-Jun-23 10:00N 62°28' E 006°08'0 0.0
2017-Jun-23 09:30N 62°28' E 006°08'0 0.0
2017-Jun-23 09:00N 62°28' E 006°08'0 0.0
2017-Jun-23 08:30N 62°28' E 006°08'0 0.0
2017-Jun-23 08:00N 62°28' E 006°08'0 0.0
2017-Jun-23 07:30N 62°28' E 006°08'0 0.0
2017-Jun-23 06:59N 62°28' E 006°08'0 0.0
2017-Jun-23 06:30N 62°28' E 006°08'0 0.0
2017-Jun-23 06:00N 62°28' E 006°08'0 0.0
2017-Jun-23 05:30N 62°28' E 006°08'0 0.0
2017-Jun-23 05:00N 62°28' E 006°08'0 0.0
2017-Jun-23 04:30N 62°28' E 006°08'0 0.0
2017-Jun-23 04:00N 62°28' E 006°08'0 0.0
2017-Jun-23 03:29N 62°28' E 006°08'0 0.0
2017-Jun-23 03:00N 62°28' E 006°08'0 0.0
2017-Jun-23 02:29N 62°28' E 006°08'0 0.0
2017-Jun-23 02:00N 62°28' E 006°08'0 0.0
2017-Jun-23 01:30N 62°28' E 006°08'0 0.0
2017-Jun-23 01:00N 62°28' E 006°08'0 0.0
2017-Jun-23 00:30N 62°28' E 006°08'0 0.0
2017-Jun-23 00:00N 62°28' E 006°08'0 0.0
2017-Jun-22 23:29N 62°28' E 006°08'0 0.0
2017-Jun-22 22:59N 62°28' E 006°08'0 0.0
2017-Jun-22 22:30N 62°28' E 006°08'0 0.0
2017-Jun-22 21:59N 62°28' E 006°08'0 0.0
2017-Jun-22 21:30N 62°28' E 006°08'0 0.0
2017-Jun-22 21:00N 62°28' E 006°08'0 0.0
2017-Jun-22 20:30N 62°28' E 006°08'0 0.0
2017-Jun-22 20:00N 62°28' E 006°08'0 0.0
2017-Jun-22 19:30N 62°28' E 006°08'0 0.0
2017-Jun-22 19:00N 62°28' E 006°08'0 0.0
2017-Jun-22 18:29N 62°28' E 006°08'0 0.0
2017-Jun-22 17:59N 62°28' E 006°08'0 0.0
2017-Jun-22 17:30N 62°28' E 006°08'0 0.0
2017-Jun-22 17:00N 62°28' E 006°08'0 0.0
2017-Jun-22 16:30N 62°28' E 006°08'0 0.0
2017-Jun-22 16:00N 62°28' E 006°08'0 0.0
2017-Jun-22 15:30N 62°28' E 006°08'0 0.0
2017-Jun-22 15:00N 62°28' E 006°08'0 0.0
2017-Jun-22 14:00N 62°28' E 006°08'0 0.0
2017-Jun-22 13:30N 62°28' E 006°08'1 2.4
2017-Jun-22 13:00N 62°27' E 006°10'2 3.4
2017-Jun-22 12:30N 62°29' E 006°11'1 2.7
2017-Jun-22 12:00N 62°29' E 006°14'0 0.1
2017-Jun-22 11:30N 62°29' E 006°14'3 6.5
2017-Jun-22 11:00N 62°28' E 006°21'0 0.0
2017-Jun-22 10:30N 62°28' E 006°21'0 0.1
2017-Jun-22 10:00N 62°28' E 006°21'1 3.0
2017-Jun-22 09:30N 62°29' E 006°18'0 0.0
2017-Jun-22 09:00N 62°29' E 006°18'3 5.4
2017-Jun-22 08:29N 62°30' E 006°24'0 0.0
2017-Jun-22 08:00N 62°30' E 006°24'0 0.0
2017-Jun-22 07:30N 62°30' E 006°24'3 6.8
2017-Jun-22 07:00N 62°29' E 006°17'4 8.8
2017-Jun-22 06:30N 62°28' E 006°08'0 0.0
2017-Jun-22 06:00N 62°28' E 006°08'0 0.0
2017-Jun-22 05:30N 62°28' E 006°08'0 0.0
2017-Jun-22 05:00N 62°28' E 006°08'0 0.0
2017-Jun-22 04:30N 62°28' E 006°08'0 0.0
2017-Jun-22 03:59N 62°28' E 006°08'0 0.0
2017-Jun-22 03:30N 62°28' E 006°08'0 0.0
2017-Jun-22 03:00N 62°28' E 006°08'0 0.0
2017-Jun-22 02:30N 62°28' E 006°08'0 0.0
2017-Jun-22 02:00N 62°28' E 006°08'0 0.0
2017-Jun-22 01:30N 62°28' E 006°08'0 0.0
2017-Jun-22 00:59N 62°28' E 006°08'0 0.1
2017-Jun-22 00:30N 62°28' E 006°08'4 8.9
2017-Jun-22 00:00N 62°33' E 006°09'713.8
2017-Jun-21 23:30N 62°37' E 006°20'713.8
2017-Jun-21 23:00N 62°43' E 006°29'714.0
2017-Jun-21 22:30N 62°49' E 006°37'713.6
2017-Jun-21 22:00N 62°54' E 006°47'5 9.5
2017-Jun-21 21:30N 62°53' E 006°57'0 0.0
2017-Jun-21 21:00N 62°53' E 006°57'0 0.0
2017-Jun-21 20:30N 62°53' E 006°57'0 0.4
2017-Jun-21 20:00N 62°53' E 006°56'510.8
2017-Jun-21 19:30N 62°57' E 006°50'613.2
2017-Jun-21 19:00N 63°00' E 007°03'713.3
2017-Jun-21 18:30N 63°03' E 007°16'613.0
2017-Jun-21 18:00N 63°06' E 007°29'612.9
2017-Jun-21 17:30N 63°09' E 007°41'713.2
2017-Jun-21 17:00N 63°13' E 007°53'612.9
2017-Jun-21 16:30N 63°16' E 008°06'712.8
2017-Jun-21 16:00N 63°20' E 008°18'612.8
2017-Jun-21 15:29N 63°24' E 008°29'612.8
2017-Jun-21 14:59N 63°26' E 008°42'612.9
2017-Jun-21 14:30N 63°28' E 008°56'1413.0
2017-Jun-21 13:24N 63°35' E 009°24'512.9
2017-Jun-21 13:01N 63°39' E 009°29'713.7
2017-Jun-21 12:30N 63°46' E 009°33'813.1
2017-Jun-21 11:51N 63°53' E 009°44'1112.6
2017-Jun-21 11:00N 64°03' E 009°50'5011.4
2017-Jun-21 06:36N 64°44' E 010°58'113.1
2017-Jun-21 06:30N 64°45' E 010°60'713.4
2017-Jun-21 06:00N 64°50' E 011°11'2 4.5
2017-Jun-21 05:30N 64°52' E 011°14'510.2
2017-Jun-21 05:00N 64°55' E 011°23'713.6
2017-Jun-21 04:30N 64°59' E 011°36'713.0
2017-Jun-21 04:00N 65°04' E 011°46'713.7
2017-Jun-21 03:30N 65°11' E 011°51'713.8
2017-Jun-21 03:00N 65°17' E 011°58'711.5
2017-Jun-21 02:22N 65°24' E 011°58'612.4
2017-Jun-21 01:54N 65°30' E 011°60'1013.4
2017-Jun-21 01:07N 65°39' E 012°13'214.0
2017-Jun-21 00:59N 65°41' E 012°15'1014.2
2017-Jun-21 00:15N 65°51' E 012°22'613.5
2017-Jun-20 23:47N 65°57' E 012°25'413.4
2017-Jun-20 23:30N 65°60' E 012°31'713.5
2017-Jun-20 22:59N 66°05' E 012°41'613.4
2017-Jun-20 22:31N 66°11' E 012°50'713.6
2017-Jun-20 22:00N 66°17' E 012°55'713.6
2017-Jun-20 21:30N 66°24' E 012°58'713.3
2017-Jun-20 20:59N 66°31' E 012°58'611.6
2017-Jun-20 20:30N 66°36' E 013°05'713.6
2017-Jun-20 19:59N 66°42' E 013°10'713.5
2017-Jun-20 19:28N 66°49' E 013°16'612.8
2017-Jun-20 19:00N 66°54' E 013°25'611.5
2017-Jun-20 18:30N 66°58' E 013°34'713.8
2017-Jun-20 18:00N 67°02' E 013°49'713.7
2017-Jun-20 17:30N 67°07' E 014°00'713.3
2017-Jun-20 17:00N 67°13' E 014°08'713.4
2017-Jun-20 16:30N 67°19' E 014°17'713.4
2017-Jun-20 16:01N 67°24' E 014°27'713.6
2017-Jun-20 15:30N 67°31' E 014°22'713.9
2017-Jun-20 15:00N 67°38' E 014°16'2113.5
2017-Jun-20 13:27N 67°58' E 014°09'1113.5
2017-Jun-20 12:38N 68°10' E 014°07'33 8.3
2017-Jun-20 08:44N 68°33' E 015°07'104 5.2
2017-Jun-19 12:50N 69°38' E 018°57'0 0.0
2017-Jun-19 12:30N 69°38' E 018°57'0 0.0
2017-Jun-19 12:00N 69°38' E 018°57'0 0.0
2017-Jun-19 11:29N 69°38' E 018°57'0 0.0
2017-Jun-19 11:00N 69°38' E 018°57'0 0.0
2017-Jun-19 10:30N 69°38' E 018°57'0 0.0
2017-Jun-19 10:00N 69°38' E 018°57'0 0.0
2017-Jun-19 09:30N 69°38' E 018°57'0 0.0
2017-Jun-19 09:00N 69°38' E 018°57'0 0.0
2017-Jun-19 08:30N 69°38' E 018°57'0 0.0
2017-Jun-19 08:00N 69°38' E 018°57'0 0.0
2017-Jun-19 07:30N 69°38' E 018°57'0 0.0
2017-Jun-19 07:00N 69°38' E 018°57'0 0.0
2017-Jun-19 06:29N 69°38' E 018°57'0 0.0
2017-Jun-19 06:00N 69°38' E 018°57'0 0.0
2017-Jun-19 05:30N 69°38' E 018°57'0 0.0
2017-Jun-19 05:00N 69°38' E 018°57'0 0.0
2017-Jun-19 04:30N 69°38' E 018°57'0 0.0
2017-Jun-19 04:00N 69°38' E 018°57'0 0.0
2017-Jun-19 03:30N 69°38' E 018°57'0 0.0
2017-Jun-19 03:00N 69°38' E 018°57'0 0.0
2017-Jun-19 02:30N 69°38' E 018°57'0 0.0
2017-Jun-19 02:00N 69°38' E 018°57'0 0.0
2017-Jun-19 01:30N 69°38' E 018°57'0 0.0
2017-Jun-19 01:00N 69°38' E 018°57'0 0.0
2017-Jun-19 00:29N 69°38' E 018°57'0 0.0
2017-Jun-19 00:00N 69°38' E 018°57'0 0.0
2017-Jun-18 23:30N 69°38' E 018°57'0 0.0
2017-Jun-18 22:59N 69°38' E 018°57'0 0.0
2017-Jun-18 22:30N 69°38' E 018°57'0 0.0
2017-Jun-18 22:00N 69°38' E 018°57'0 0.0
2017-Jun-18 21:29N 69°38' E 018°57'0 0.0
2017-Jun-18 21:00N 69°38' E 018°57'0 0.0
2017-Jun-18 20:30N 69°38' E 018°57'0 0.0
2017-Jun-18 20:00N 69°38' E 018°57'0 0.0
2017-Jun-18 19:30N 69°38' E 018°57'0 0.0
2017-Jun-18 19:00N 69°38' E 018°57'0 0.0
2017-Jun-18 18:30N 69°38' E 018°57'2 3.8
2017-Jun-18 18:00N 69°39' E 018°58'0 0.0
2017-Jun-18 17:29N 69°39' E 018°58'0 0.0
2017-Jun-18 17:00N 69°39' E 018°58'0 0.0
2017-Jun-18 16:30N 69°39' E 018°58'0 0.0
2017-Jun-18 16:00N 69°39' E 018°58'0 0.0
2017-Jun-18 15:30N 69°39' E 018°58'0 0.0
2017-Jun-18 15:00N 69°39' E 018°58'1 0.7
2017-Jun-18 14:00N 69°40' E 018°60'0 0.2
2017-Jun-18 13:30N 69°40' E 018°59'0 0.1
2017-Jun-18 13:00N 69°40' E 018°59'0 0.3
2017-Jun-18 12:30N 69°40' E 018°59'0 0.9
2017-Jun-18 12:00N 69°39' E 018°58'0 0.0
2017-Jun-18 11:30N 69°39' E 018°58'0 0.0
2017-Jun-18 10:59N 69°39' E 018°58'0 0.0
2017-Jun-18 10:29N 69°39' E 018°58'0 0.0
2017-Jun-18 10:00N 69°39' E 018°58'0 0.0
2017-Jun-18 09:30N 69°39' E 018°58'0 0.0
2017-Jun-18 09:00N 69°39' E 018°58'0 0.0
2017-Jun-18 08:30N 69°39' E 018°58'0 0.0
2017-Jun-18 08:00N 69°39' E 018°58'0 0.0
2017-Jun-18 07:30N 69°39' E 018°58'0 0.0
2017-Jun-18 07:00N 69°39' E 018°58'0 0.0
2017-Jun-18 06:30N 69°39' E 018°58'0 0.0
2017-Jun-18 06:00N 69°39' E 018°58'0 0.1
2017-Jun-18 05:29N 69°39' E 018°58'0 0.1
2017-Jun-18 05:00N 69°39' E 018°58'0 0.0
2017-Jun-18 04:30N 69°39' E 018°58'0 0.0
2017-Jun-18 04:00N 69°39' E 018°58'0 0.0
2017-Jun-18 03:30N 69°39' E 018°58'0 0.0
2017-Jun-18 03:00N 69°39' E 018°58'0 0.0
2017-Jun-18 02:30N 69°39' E 018°58'0 0.0
2017-Jun-18 02:00N 69°39' E 018°58'0 0.0
2017-Jun-18 01:30N 69°39' E 018°58'0 0.0
2017-Jun-18 01:00N 69°39' E 018°58'0 0.0
2017-Jun-18 00:30N 69°39' E 018°58'0 0.0
2017-Jun-18 00:00N 69°39' E 018°58'0 0.0
2017-Jun-17 23:29N 69°39' E 018°58'0 0.0
2017-Jun-17 23:00N 69°39' E 018°58'0 0.0
2017-Jun-17 22:30N 69°39' E 018°58'0 0.0
2017-Jun-17 21:59N 69°39' E 018°58'0 0.0
2017-Jun-17 21:30N 69°39' E 018°58'0 0.0
2017-Jun-17 21:00N 69°39' E 018°58'0 0.0
2017-Jun-17 20:30N 69°39' E 018°58'0 0.0
2017-Jun-17 20:00N 69°39' E 018°58'0 0.0
2017-Jun-17 19:30N 69°39' E 018°58'0 0.0
2017-Jun-17 19:00N 69°39' E 018°58'0 0.0
2017-Jun-17 18:30N 69°39' E 018°58'0 0.0
2017-Jun-17 17:59N 69°39' E 018°58'0 0.0
2017-Jun-17 17:30N 69°39' E 018°58'0 0.0
2017-Jun-17 17:00N 69°39' E 018°58'0 0.0
2017-Jun-17 16:30N 69°39' E 018°58'0 0.0
2017-Jun-17 16:00N 69°39' E 018°58'0 0.0
2017-Jun-17 15:29N 69°39' E 018°58'0 0.0
2017-Jun-17 15:00N 69°39' E 018°58'0 0.0
2017-Jun-17 13:59N 69°39' E 018°58'0 0.0
2017-Jun-17 13:30N 69°39' E 018°58'0 0.0
2017-Jun-17 13:00N 69°39' E 018°58'0 0.0
2017-Jun-17 12:30N 69°39' E 018°58'1 2.0
2017-Jun-17 12:00N 69°40' E 019°00'713.2
2017-Jun-17 11:30N 69°46' E 019°08'714.5
2017-Jun-17 11:00N 69°49' E 019°28'714.5
2017-Jun-17 10:30N 69°52' E 019°47'714.5
2017-Jun-17 10:00N 69°56' E 020°03'714.2
2017-Jun-17 09:30N 69°60' E 020°21'714.6
2017-Jun-17 09:00N 70°02' E 020°41'713.5
2017-Jun-17 08:30N 70°06' E 020°58'714.2
2017-Jun-17 07:59N 70°12' E 021°07'713.8
2017-Jun-17 07:30N 70°17' E 021°22'713.9
2017-Jun-17 07:00N 70°22' E 021°36'613.2
2017-Jun-17 06:30N 70°25' E 021°53'713.9
2017-Jun-17 06:00N 70°27' E 022°13'714.3
2017-Jun-17 05:30N 70°29' E 022°34'713.9
2017-Jun-17 05:00N 70°30' E 022°54'713.4
2017-Jun-17 04:30N 70°35' E 023°09'713.5
2017-Jun-17 04:00N 70°40' E 023°23'713.6
2017-Jun-17 03:30N 70°45' E 023°37'714.1
2017-Jun-17 03:00N 70°50' E 023°52'714.1
2017-Jun-17 02:30N 70°54' E 024°09'714.4
2017-Jun-17 02:00N 70°60' E 024°24'612.1
2017-Jun-17 01:30N 71°01' E 024°43'1 2.1
2017-Jun-17 01:00N 70°60' E 024°41'0 0.8
2017-Jun-17 00:30N 70°60' E 024°43'713.4
2017-Jun-17 00:00N 70°59' E 025°03'714.4
2017-Jun-16 23:30N 70°58' E 025°25'713.9
2017-Jun-16 23:00N 70°56' E 025°46'510.2
2017-Jun-16 22:30N 70°60' E 025°58'0 0.5
2017-Jun-16 22:00N 70°60' E 025°58'0 0.4
2017-Jun-16 21:30N 70°59' E 025°57'5 9.5
2017-Jun-16 21:01N 70°59' E 026°12'714.8
2017-Jun-16 20:30N 71°01' E 026°33'714.3
2017-Jun-16 20:00N 71°04' E 026°54'714.3
2017-Jun-16 19:30N 71°06' E 027°15'713.5
2017-Jun-16 19:00N 71°08' E 027°34'713.1
2017-Jun-16 18:29N 71°08' E 027°55'613.3
2017-Jun-16 18:00N 71°07' E 028°15'713.1
2017-Jun-16 17:30N 71°04' E 028°32'713.4
2017-Jun-16 17:01N 70°60' E 028°48'713.5
2017-Jun-16 16:30N 70°56' E 029°05'612.8
2017-Jun-16 16:00N 70°52' E 029°20'713.2
2017-Jun-16 15:30N 70°48' E 029°36'612.7
2017-Jun-16 15:00N 70°43' E 029°50'612.0
2017-Jun-16 14:30N 70°38' E 029°43'0 0.0
2017-Jun-16 13:30N 70°38' E 029°43'0 0.0
2017-Jun-16 13:00N 70°38' E 029°43'0 0.0
2017-Jun-16 12:30N 70°38' E 029°43'0 0.0
2017-Jun-16 12:00N 70°38' E 029°43'0 0.0
2017-Jun-16 11:30N 70°38' E 029°43'0 0.0
2017-Jun-16 11:00N 70°38' E 029°43'0 0.0
2017-Jun-16 10:30N 70°38' E 029°43'0 0.0
2017-Jun-16 09:59N 70°38' E 029°43'0 0.0
2017-Jun-16 09:30N 70°38' E 029°43'0 0.0
2017-Jun-16 09:00N 70°38' E 029°43'0 0.0
2017-Jun-16 08:29N 70°38' E 029°43'0 0.0
2017-Jun-16 08:00N 70°38' E 029°43'0 0.0
2017-Jun-16 07:29N 70°38' E 029°43'0 0.0
2017-Jun-16 07:00N 70°38' E 029°43'0 0.0
2017-Jun-16 06:30N 70°38' E 029°43'0 0.0
2017-Jun-16 06:00N 70°38' E 029°43'0 0.0
2017-Jun-16 05:29N 70°38' E 029°43'0 0.0
2017-Jun-16 05:00N 70°38' E 029°43'0 0.0
2017-Jun-16 04:30N 70°38' E 029°43'0 0.3
2017-Jun-16 04:00N 70°38' E 029°44'0 0.0
2017-Jun-16 03:30N 70°38' E 029°44'0 0.0
2017-Jun-16 03:00N 70°38' E 029°44'0 0.0
2017-Jun-16 02:30N 70°38' E 029°44'0 0.0
2017-Jun-16 01:59N 70°38' E 029°44'0 0.0
2017-Jun-16 01:29N 70°38' E 029°44'0 0.0
2017-Jun-16 01:00N 70°38' E 029°44'0 0.0
2017-Jun-16 00:29N 70°38' E 029°44'0 0.0
2017-Jun-15 23:59N 70°38' E 029°44'0 0.0
2017-Jun-15 23:30N 70°38' E 029°44'0 0.0
2017-Jun-15 23:00N 70°38' E 029°44'0 0.0
2017-Jun-15 22:30N 70°38' E 029°44'0 0.0
2017-Jun-15 22:00N 70°38' E 029°44'0 0.0
2017-Jun-15 21:30N 70°38' E 029°44'0 0.0
2017-Jun-15 20:59N 70°38' E 029°44'0 0.0
2017-Jun-15 20:29N 70°38' E 029°44'0 0.0
2017-Jun-15 20:00N 70°38' E 029°44'0 0.0
2017-Jun-15 19:30N 70°38' E 029°44'0 0.0
2017-Jun-15 19:00N 70°38' E 029°44'0 0.0
2017-Jun-15 18:30N 70°38' E 029°44'0 0.0
2017-Jun-15 18:00N 70°38' E 029°44'0 0.0
2017-Jun-15 17:30N 70°38' E 029°44'0 0.0
2017-Jun-15 17:00N 70°38' E 029°44'0 0.0
2017-Jun-15 16:30N 70°38' E 029°44'0 0.0
2017-Jun-15 16:00N 70°38' E 029°44'0 0.0
2017-Jun-15 15:30N 70°38' E 029°44'0 0.0
2017-Jun-15 15:00N 70°38' E 029°44'0 0.0
2017-Jun-15 14:30N 70°38' E 029°44'0 0.1
2017-Jun-15 13:30N 70°38' E 029°44'0 0.1
2017-Jun-15 12:58N 70°38' E 029°44'0 0.0
2017-Jun-15 12:30N 70°38' E 029°44'0 0.0
2017-Jun-15 12:00N 70°38' E 029°44'0 0.0
2017-Jun-15 11:29N 70°38' E 029°44'0 0.0
2017-Jun-15 10:59N 70°38' E 029°44'0 0.0
2017-Jun-15 10:29N 70°38' E 029°44'0 0.0
2017-Jun-15 10:00N 70°38' E 029°44'0 0.0
2017-Jun-15 09:29N 70°38' E 029°44'0 0.0
2017-Jun-15 09:00N 70°38' E 029°44'0 0.0
2017-Jun-15 08:30N 70°38' E 029°44'0 0.0
2017-Jun-15 08:00N 70°38' E 029°43'0 0.0
2017-Jun-15 07:30N 70°38' E 029°43'0 0.0
2017-Jun-15 07:00N 70°38' E 029°44'0 0.0
2017-Jun-15 06:30N 70°38' E 029°44'0 0.0
2017-Jun-15 06:00N 70°38' E 029°44'0 0.0
2017-Jun-15 05:30N 70°38' E 029°44'0 0.0
2017-Jun-15 05:00N 70°38' E 029°44'0 0.0
2017-Jun-15 04:30N 70°38' E 029°44'0 0.0
2017-Jun-15 04:00N 70°38' E 029°44'0 0.0
2017-Jun-15 03:30N 70°38' E 029°44'0 0.2
2017-Jun-15 03:00N 70°38' E 029°43'510.3
2017-Jun-15 02:30N 70°42' E 029°50'714.2
2017-Jun-15 02:00N 70°48' E 029°36'715.0
2017-Jun-15 01:30N 70°52' E 029°17'815.3
2017-Jun-15 01:00N 70°57' E 028°59'714.6
2017-Jun-15 00:30N 71°01' E 028°41'714.3
2017-Jun-15 00:00N 71°05' E 028°23'713.6
2017-Jun-14 23:30N 71°08' E 028°04'714.3
2017-Jun-14 23:00N 71°09' E 027°42'713.8
2017-Jun-14 22:30N 71°07' E 027°21'714.9
2017-Jun-14 22:00N 71°04' E 026°59'714.8
2017-Jun-14 21:30N 71°02' E 026°37'714.7
2017-Jun-14 21:00N 70°59' E 026°16'714.8
2017-Jun-14 20:30N 70°57' E 025°55'714.5
2017-Jun-14 20:00N 70°56' E 025°33'713.9
2017-Jun-14 19:30N 70°59' E 025°15'714.8
2017-Jun-14 19:00N 70°60' E 024°52'714.7
2017-Jun-14 18:30N 71°01' E 024°30'815.2
2017-Jun-14 18:00N 70°56' E 024°14'815.5
2017-Jun-14 17:30N 70°51' E 023°56'815.1
2017-Jun-14 17:00N 70°45' E 023°40'612.4
2017-Jun-14 16:30N 70°39' E 023°35'2 3.8
2017-Jun-14 16:01N 70°40' E 023°40'0 0.0
2017-Jun-14 15:30N 70°40' E 023°40'0 0.1
2017-Jun-14 15:00N 70°40' E 023°40'1312.8
2017-Jun-14 14:00N 70°33' E 023°06'  

Dump ship's entire track history